sensor_id;sensor_type;location;lat;lon;timestamp;P1;durP1;ratioP1;P2;durP2;ratioP2
23718;SDS011;43322;52.230;5.702;2023-05-09T00:02:18;72.03;;;37.08;;
23718;SDS011;43322;52.230;5.702;2023-05-09T00:04:46;72.93;;;36.38;;
23718;SDS011;43322;52.230;5.702;2023-05-09T00:07:12;73.88;;;36.60;;
23718;SDS011;43322;52.230;5.702;2023-05-09T00:09:39;80.00;;;39.05;;
23718;SDS011;43322;52.230;5.702;2023-05-09T00:12:07;79.78;;;38.60;;
23718;SDS011;43322;52.230;5.702;2023-05-09T00:14:36;83.32;;;39.33;;
23718;SDS011;43322;52.230;5.702;2023-05-09T00:17:04;76.78;;;36.63;;
23718;SDS011;43322;52.230;5.702;2023-05-09T00:19:31;86.15;;;42.22;;
23718;SDS011;43322;52.230;5.702;2023-05-09T00:21:58;84.63;;;40.22;;
23718;SDS011;43322;52.230;5.702;2023-05-09T00:24:25;87.32;;;41.40;;
23718;SDS011;43322;52.230;5.702;2023-05-09T00:26:51;87.63;;;41.60;;
23718;SDS011;43322;52.230;5.702;2023-05-09T00:29:19;84.45;;;41.15;;
23718;SDS011;43322;52.230;5.702;2023-05-09T00:31:46;82.53;;;41.17;;
23718;SDS011;43322;52.230;5.702;2023-05-09T00:34:12;84.47;;;42.40;;
23718;SDS011;43322;52.230;5.702;2023-05-09T00:36:39;79.90;;;38.97;;
23718;SDS011;43322;52.230;5.702;2023-05-09T00:39:06;82.80;;;39.97;;
23718;SDS011;43322;52.230;5.702;2023-05-09T00:41:33;86.85;;;40.03;;
23718;SDS011;43322;52.230;5.702;2023-05-09T00:44:00;87.03;;;42.28;;
23718;SDS011;43322;52.230;5.702;2023-05-09T00:46:28;85.13;;;40.95;;
23718;SDS011;43322;52.230;5.702;2023-05-09T00:48:55;85.65;;;40.55;;
23718;SDS011;43322;52.230;5.702;2023-05-09T00:51:21;92.82;;;41.10;;
23718;SDS011;43322;52.230;5.702;2023-05-09T00:53:49;80.65;;;39.85;;
23718;SDS011;43322;52.230;5.702;2023-05-09T00:56:16;91.13;;;42.33;;
23718;SDS011;43322;52.230;5.702;2023-05-09T00:58:43;76.28;;;39.10;;
23718;SDS011;43322;52.230;5.702;2023-05-09T01:01:10;74.75;;;38.15;;
23718;SDS011;43322;52.230;5.702;2023-05-09T01:03:38;91.47;;;43.75;;
23718;SDS011;43322;52.230;5.702;2023-05-09T01:06:09;86.85;;;43.08;;
23718;SDS011;43322;52.230;5.702;2023-05-09T01:08:43;98.22;;;43.65;;
23718;SDS011;43322;52.230;5.702;2023-05-09T01:11:19;91.68;;;42.28;;
23718;SDS011;43322;52.230;5.702;2023-05-09T01:13:56;85.68;;;41.83;;
23718;SDS011;43322;52.230;5.702;2023-05-09T01:16:33;84.45;;;42.03;;
23718;SDS011;43322;52.230;5.702;2023-05-09T01:19:07;89.30;;;43.42;;
23718;SDS011;43322;52.230;5.702;2023-05-09T01:21:44;88.80;;;42.40;;
23718;SDS011;43322;52.230;5.702;2023-05-09T01:24:20;78.75;;;40.20;;
23718;SDS011;43322;52.230;5.702;2023-05-09T01:27:05;85.22;;;40.90;;
23718;SDS011;43322;52.230;5.702;2023-05-09T01:29:48;86.10;;;41.70;;
23718;SDS011;43322;52.230;5.702;2023-05-09T01:32:23;80.95;;;39.92;;
23718;SDS011;43322;52.230;5.702;2023-05-09T01:34:53;82.63;;;39.63;;
23718;SDS011;43322;52.230;5.702;2023-05-09T01:37:23;83.57;;;40.33;;
23718;SDS011;43322;52.230;5.702;2023-05-09T01:39:54;79.50;;;40.65;;
23718;SDS011;43322;52.230;5.702;2023-05-09T01:42:23;83.47;;;41.40;;
23718;SDS011;43322;52.230;5.702;2023-05-09T01:44:55;83.18;;;41.28;;
23718;SDS011;43322;52.230;5.702;2023-05-09T01:47:24;79.20;;;39.75;;
23718;SDS011;43322;52.230;5.702;2023-05-09T01:49:52;80.15;;;41.28;;
23718;SDS011;43322;52.230;5.702;2023-05-09T01:52:20;83.07;;;40.92;;
23718;SDS011;43322;52.230;5.702;2023-05-09T01:54:47;83.30;;;41.15;;
23718;SDS011;43322;52.230;5.702;2023-05-09T01:57:16;86.53;;;40.78;;
23718;SDS011;43322;52.230;5.702;2023-05-09T01:59:44;84.50;;;40.38;;
23718;SDS011;43322;52.230;5.702;2023-05-09T02:02:14;78.70;;;38.90;;
23718;SDS011;43322;52.230;5.702;2023-05-09T02:04:41;76.68;;;37.60;;
23718;SDS011;43322;52.230;5.702;2023-05-09T02:07:09;78.80;;;39.05;;
23718;SDS011;43322;52.230;5.702;2023-05-09T02:09:37;72.68;;;38.58;;
23718;SDS011;43322;52.230;5.702;2023-05-09T02:12:04;75.40;;;38.45;;
23718;SDS011;43322;52.230;5.702;2023-05-09T02:14:31;76.05;;;37.78;;
23718;SDS011;43322;52.230;5.702;2023-05-09T02:16:59;79.97;;;38.38;;
23718;SDS011;43322;52.230;5.702;2023-05-09T02:19:31;79.45;;;38.08;;
23718;SDS011;43322;52.230;5.702;2023-05-09T02:21:59;70.05;;;36.38;;
23718;SDS011;43322;52.230;5.702;2023-05-09T02:24:26;77.60;;;36.40;;
23718;SDS011;43322;52.230;5.702;2023-05-09T02:26:53;76.20;;;35.63;;
23718;SDS011;43322;52.230;5.702;2023-05-09T02:29:20;71.72;;;37.22;;
23718;SDS011;43322;52.230;5.702;2023-05-09T02:31:54;80.82;;;39.05;;
23718;SDS011;43322;52.230;5.702;2023-05-09T02:34:23;80.35;;;39.58;;
23718;SDS011;43322;52.230;5.702;2023-05-09T02:36:52;80.05;;;39.22;;
23718;SDS011;43322;52.230;5.702;2023-05-09T02:39:19;69.50;;;34.72;;
23718;SDS011;43322;52.230;5.702;2023-05-09T02:41:48;72.35;;;37.28;;
23718;SDS011;43322;52.230;5.702;2023-05-09T02:44:15;70.82;;;36.42;;
23718;SDS011;43322;52.230;5.702;2023-05-09T02:46:42;80.55;;;38.47;;
23718;SDS011;43322;52.230;5.702;2023-05-09T02:49:08;86.68;;;39.63;;
23718;SDS011;43322;52.230;5.702;2023-05-09T02:51:35;74.43;;;38.22;;
23718;SDS011;43322;52.230;5.702;2023-05-09T02:54:03;78.65;;;37.10;;
23718;SDS011;43322;52.230;5.702;2023-05-09T02:56:30;73.75;;;37.42;;
23718;SDS011;43322;52.230;5.702;2023-05-09T02:58:57;83.38;;;39.80;;
23718;SDS011;43322;52.230;5.702;2023-05-09T03:01:23;84.55;;;40.63;;
23718;SDS011;43322;52.230;5.702;2023-05-09T03:03:50;81.65;;;39.10;;
23718;SDS011;43322;52.230;5.702;2023-05-09T03:06:17;75.72;;;36.63;;
23718;SDS011;43322;52.230;5.702;2023-05-09T03:08:43;87.20;;;38.20;;
23718;SDS011;43322;52.230;5.702;2023-05-09T03:11:11;77.07;;;37.67;;
23718;SDS011;43322;52.230;5.702;2023-05-09T03:13:38;82.50;;;40.28;;
23718;SDS011;43322;52.230;5.702;2023-05-09T03:16:05;80.95;;;39.70;;
23718;SDS011;43322;52.230;5.702;2023-05-09T03:18:32;77.15;;;38.47;;
23718;SDS011;43322;52.230;5.702;2023-05-09T03:20:59;75.43;;;37.45;;
23718;SDS011;43322;52.230;5.702;2023-05-09T03:23:25;84.35;;;40.58;;
23718;SDS011;43322;52.230;5.702;2023-05-09T03:25:52;81.15;;;39.45;;
23718;SDS011;43322;52.230;5.702;2023-05-09T03:28:20;74.13;;;37.50;;
23718;SDS011;43322;52.230;5.702;2023-05-09T03:30:47;78.10;;;37.25;;
23718;SDS011;43322;52.230;5.702;2023-05-09T03:33:14;79.15;;;38.70;;
23718;SDS011;43322;52.230;5.702;2023-05-09T03:35:41;83.05;;;39.38;;
23718;SDS011;43322;52.230;5.702;2023-05-09T03:38:08;76.22;;;38.50;;
23718;SDS011;43322;52.230;5.702;2023-05-09T03:40:34;72.88;;;36.03;;
23718;SDS011;43322;52.230;5.702;2023-05-09T03:43:01;75.30;;;37.40;;
23718;SDS011;43322;52.230;5.702;2023-05-09T03:45:29;74.22;;;36.92;;
23718;SDS011;43322;52.230;5.702;2023-05-09T03:47:56;77.45;;;38.97;;
23718;SDS011;43322;52.230;5.702;2023-05-09T03:50:23;79.95;;;38.38;;
23718;SDS011;43322;52.230;5.702;2023-05-09T03:52:49;73.40;;;37.45;;
23718;SDS011;43322;52.230;5.702;2023-05-09T03:55:16;71.00;;;36.78;;
23718;SDS011;43322;52.230;5.702;2023-05-09T03:57:43;70.38;;;36.97;;
23718;SDS011;43322;52.230;5.702;2023-05-09T04:00:10;70.60;;;35.63;;
23718;SDS011;43322;52.230;5.702;2023-05-09T04:02:38;72.88;;;36.92;;
23718;SDS011;43322;52.230;5.702;2023-05-09T04:05:06;72.13;;;36.47;;
23718;SDS011;43322;52.230;5.702;2023-05-09T04:07:32;69.22;;;35.97;;
23718;SDS011;43322;52.230;5.702;2023-05-09T04:09:59;66.40;;;33.70;;
23718;SDS011;43322;52.230;5.702;2023-05-09T04:12:26;65.15;;;33.45;;
23718;SDS011;43322;52.230;5.702;2023-05-09T04:14:53;68.20;;;33.72;;
23718;SDS011;43322;52.230;5.702;2023-05-09T04:17:19;71.57;;;35.38;;
23718;SDS011;43322;52.230;5.702;2023-05-09T04:19:47;69.20;;;34.65;;
23718;SDS011;43322;52.230;5.702;2023-05-09T04:22:14;72.95;;;36.35;;
23718;SDS011;43322;52.230;5.702;2023-05-09T04:24:41;78.35;;;38.35;;
23718;SDS011;43322;52.230;5.702;2023-05-09T04:27:08;75.38;;;37.00;;
23718;SDS011;43322;52.230;5.702;2023-05-09T04:29:35;80.93;;;38.95;;
23718;SDS011;43322;52.230;5.702;2023-05-09T04:32:02;75.93;;;37.22;;
23718;SDS011;43322;52.230;5.702;2023-05-09T04:34:30;79.72;;;38.90;;
23718;SDS011;43322;52.230;5.702;2023-05-09T04:36:58;81.13;;;39.30;;
23718;SDS011;43322;52.230;5.702;2023-05-09T04:39:25;79.38;;;38.72;;
23718;SDS011;43322;52.230;5.702;2023-05-09T04:41:51;79.35;;;38.00;;
23718;SDS011;43322;52.230;5.702;2023-05-09T04:44:18;73.82;;;36.92;;
23718;SDS011;43322;52.230;5.702;2023-05-09T04:46:45;80.68;;;37.58;;
23718;SDS011;43322;52.230;5.702;2023-05-09T04:49:12;76.05;;;36.30;;
23718;SDS011;43322;52.230;5.702;2023-05-09T04:51:39;75.88;;;36.42;;
23718;SDS011;43322;52.230;5.702;2023-05-09T04:54:06;76.40;;;36.75;;
23718;SDS011;43322;52.230;5.702;2023-05-09T04:56:33;77.70;;;37.85;;
23718;SDS011;43322;52.230;5.702;2023-05-09T04:59:00;73.68;;;36.22;;
23718;SDS011;43322;52.230;5.702;2023-05-09T05:01:26;70.28;;;35.08;;
23718;SDS011;43322;52.230;5.702;2023-05-09T05:03:53;72.32;;;35.85;;
23718;SDS011;43322;52.230;5.702;2023-05-09T05:06:20;71.45;;;34.53;;
23718;SDS011;43322;52.230;5.702;2023-05-09T05:08:46;66.22;;;33.92;;
23718;SDS011;43322;52.230;5.702;2023-05-09T05:11:14;66.80;;;33.70;;
23718;SDS011;43322;52.230;5.702;2023-05-09T05:13:42;64.15;;;33.38;;
23718;SDS011;43322;52.230;5.702;2023-05-09T05:16:08;65.40;;;33.47;;
23718;SDS011;43322;52.230;5.702;2023-05-09T05:18:35;57.58;;;31.00;;
23718;SDS011;43322;52.230;5.702;2023-05-09T05:21:02;60.13;;;31.67;;
23718;SDS011;43322;52.230;5.702;2023-05-09T05:23:29;54.58;;;29.10;;
23718;SDS011;43322;52.230;5.702;2023-05-09T05:25:55;52.05;;;28.80;;
23718;SDS011;43322;52.230;5.702;2023-05-09T05:28:23;56.05;;;29.85;;
23718;SDS011;43322;52.230;5.702;2023-05-09T05:30:50;55.50;;;29.65;;
23718;SDS011;43322;52.230;5.702;2023-05-09T05:33:17;49.95;;;27.80;;
23718;SDS011;43322;52.230;5.702;2023-05-09T05:35:43;49.85;;;28.70;;
23718;SDS011;43322;52.230;5.702;2023-05-09T05:38:10;50.67;;;28.23;;
23718;SDS011;43322;52.230;5.702;2023-05-09T05:40:36;50.88;;;27.42;;
23718;SDS011;43322;52.230;5.702;2023-05-09T05:43:03;43.88;;;25.58;;
23718;SDS011;43322;52.230;5.702;2023-05-09T05:45:31;44.78;;;26.88;;
23718;SDS011;43322;52.230;5.702;2023-05-09T05:47:58;45.20;;;25.52;;
23718;SDS011;43322;52.230;5.702;2023-05-09T05:50:26;43.10;;;25.45;;
23718;SDS011;43322;52.230;5.702;2023-05-09T05:52:53;44.35;;;24.30;;
23718;SDS011;43322;52.230;5.702;2023-05-09T05:55:19;38.25;;;24.23;;
23718;SDS011;43322;52.230;5.702;2023-05-09T05:57:46;44.55;;;24.75;;
23718;SDS011;43322;52.230;5.702;2023-05-09T06:00:13;40.22;;;23.48;;
23718;SDS011;43322;52.230;5.702;2023-05-09T06:02:42;38.83;;;22.95;;
23718;SDS011;43322;52.230;5.702;2023-05-09T06:05:11;35.00;;;20.88;;
23718;SDS011;43322;52.230;5.702;2023-05-09T06:07:38;29.77;;;20.33;;
23718;SDS011;43322;52.230;5.702;2023-05-09T06:10:05;33.65;;;20.15;;
23718;SDS011;43322;52.230;5.702;2023-05-09T06:12:33;37.42;;;22.80;;
23718;SDS011;43322;52.230;5.702;2023-05-09T06:15:00;35.53;;;21.98;;
23718;SDS011;43322;52.230;5.702;2023-05-09T06:17:29;29.70;;;20.45;;
23718;SDS011;43322;52.230;5.702;2023-05-09T06:19:57;31.65;;;20.58;;
23718;SDS011;43322;52.230;5.702;2023-05-09T06:22:23;34.35;;;21.35;;
23718;SDS011;43322;52.230;5.702;2023-05-09T06:24:50;33.13;;;20.38;;
23718;SDS011;43322;52.230;5.702;2023-05-09T06:27:17;31.13;;;20.55;;
23718;SDS011;43322;52.230;5.702;2023-05-09T06:29:44;33.58;;;20.33;;
23718;SDS011;43322;52.230;5.702;2023-05-09T06:32:10;35.08;;;19.85;;
23718;SDS011;43322;52.230;5.702;2023-05-09T06:34:37;33.50;;;20.42;;
23718;SDS011;43322;52.230;5.702;2023-05-09T06:37:07;31.75;;;20.25;;
23718;SDS011;43322;52.230;5.702;2023-05-09T06:39:33;33.42;;;20.02;;
23718;SDS011;43322;52.230;5.702;2023-05-09T06:42:00;32.22;;;19.27;;
23718;SDS011;43322;52.230;5.702;2023-05-09T06:44:27;28.15;;;19.38;;
23718;SDS011;43322;52.230;5.702;2023-05-09T06:46:53;27.88;;;18.38;;
23718;SDS011;43322;52.230;5.702;2023-05-09T06:49:21;25.98;;;17.42;;
23718;SDS011;43322;52.230;5.702;2023-05-09T06:51:48;27.25;;;18.27;;
23718;SDS011;43322;52.230;5.702;2023-05-09T06:54:16;23.10;;;17.15;;
23718;SDS011;43322;52.230;5.702;2023-05-09T06:56:42;27.77;;;17.25;;
23718;SDS011;43322;52.230;5.702;2023-05-09T06:59:09;28.27;;;16.00;;
23718;SDS011;43322;52.230;5.702;2023-05-09T07:01:37;25.42;;;16.95;;
23718;SDS011;43322;52.230;5.702;2023-05-09T07:04:04;24.00;;;16.45;;
23718;SDS011;43322;52.230;5.702;2023-05-09T07:06:31;28.38;;;17.77;;
23718;SDS011;43322;52.230;5.702;2023-05-09T07:08:57;24.50;;;16.48;;
23718;SDS011;43322;52.230;5.702;2023-05-09T07:11:25;29.33;;;17.55;;
23718;SDS011;43322;52.230;5.702;2023-05-09T07:13:52;27.05;;;17.00;;
23718;SDS011;43322;52.230;5.702;2023-05-09T07:16:19;28.08;;;16.58;;
23718;SDS011;43322;52.230;5.702;2023-05-09T07:18:46;23.70;;;15.50;;
23718;SDS011;43322;52.230;5.702;2023-05-09T07:21:13;26.63;;;16.77;;
23718;SDS011;43322;52.230;5.702;2023-05-09T07:23:40;23.40;;;16.05;;
23718;SDS011;43322;52.230;5.702;2023-05-09T07:26:06;23.67;;;16.08;;
23718;SDS011;43322;52.230;5.702;2023-05-09T07:28:34;22.98;;;15.82;;
23718;SDS011;43322;52.230;5.702;2023-05-09T07:31:01;22.52;;;16.48;;
23718;SDS011;43322;52.230;5.702;2023-05-09T07:33:29;22.67;;;15.02;;
23718;SDS011;43322;52.230;5.702;2023-05-09T07:35:56;26.75;;;15.65;;
23718;SDS011;43322;52.230;5.702;2023-05-09T07:38:23;19.48;;;14.75;;
23718;SDS011;43322;52.230;5.702;2023-05-09T07:40:50;21.92;;;14.70;;
23718;SDS011;43322;52.230;5.702;2023-05-09T07:43:17;21.02;;;15.60;;
23718;SDS011;43322;52.230;5.702;2023-05-09T07:45:46;24.88;;;14.75;;
23718;SDS011;43322;52.230;5.702;2023-05-09T07:48:12;19.95;;;14.63;;
23718;SDS011;43322;52.230;5.702;2023-05-09T07:50:39;20.98;;;14.40;;
23718;SDS011;43322;52.230;5.702;2023-05-09T07:53:06;20.95;;;15.27;;
23718;SDS011;43322;52.230;5.702;2023-05-09T07:55:32;18.58;;;14.48;;
23718;SDS011;43322;52.230;5.702;2023-05-09T07:57:59;20.85;;;13.77;;
23718;SDS011;43322;52.230;5.702;2023-05-09T08:00:26;18.00;;;14.02;;
23718;SDS011;43322;52.230;5.702;2023-05-09T08:02:54;19.63;;;13.48;;
23718;SDS011;43322;52.230;5.702;2023-05-09T08:05:21;19.77;;;13.95;;
23718;SDS011;43322;52.230;5.702;2023-05-09T08:07:47;20.30;;;14.68;;
23718;SDS011;43322;52.230;5.702;2023-05-09T08:10:14;19.25;;;14.52;;
23718;SDS011;43322;52.230;5.702;2023-05-09T08:12:41;18.85;;;13.93;;
23718;SDS011;43322;52.230;5.702;2023-05-09T08:15:08;16.48;;;14.25;;
23718;SDS011;43322;52.230;5.702;2023-05-09T08:17:35;19.85;;;14.80;;
23718;SDS011;43322;52.230;5.702;2023-05-09T08:20:03;17.95;;;14.30;;
23718;SDS011;43322;52.230;5.702;2023-05-09T08:22:32;18.67;;;14.45;;
23718;SDS011;43322;52.230;5.702;2023-05-09T08:24:58;17.88;;;14.63;;
23718;SDS011;43322;52.230;5.702;2023-05-09T08:27:25;18.95;;;13.43;;
23718;SDS011;43322;52.230;5.702;2023-05-09T08:29:52;20.45;;;14.68;;
23718;SDS011;43322;52.230;5.702;2023-05-09T08:32:18;17.38;;;14.00;;
23718;SDS011;43322;52.230;5.702;2023-05-09T08:34:45;18.27;;;14.52;;
23718;SDS011;43322;52.230;5.702;2023-05-09T08:37:13;18.58;;;13.80;;
23718;SDS011;43322;52.230;5.702;2023-05-09T08:39:40;22.10;;;14.82;;
23718;SDS011;43322;52.230;5.702;2023-05-09T08:42:07;22.15;;;14.98;;
23718;SDS011;43322;52.230;5.702;2023-05-09T08:44:35;20.58;;;15.57;;
23718;SDS011;43322;52.230;5.702;2023-05-09T08:47:02;17.73;;;14.73;;
23718;SDS011;43322;52.230;5.702;2023-05-09T08:49:29;20.30;;;14.93;;
23718;SDS011;43322;52.230;5.702;2023-05-09T08:51:57;20.73;;;15.45;;
23718;SDS011;43322;52.230;5.702;2023-05-09T08:54:26;17.33;;;15.43;;
23718;SDS011;43322;52.230;5.702;2023-05-09T08:56:55;17.70;;;14.82;;
23718;SDS011;43322;52.230;5.702;2023-05-09T08:59:22;18.08;;;13.95;;
23718;SDS011;43322;52.230;5.702;2023-05-09T09:01:49;14.80;;;13.30;;
23718;SDS011;43322;52.230;5.702;2023-05-09T09:04:18;14.10;;;12.55;;
23718;SDS011;43322;52.230;5.702;2023-05-09T09:06:45;14.63;;;13.07;;
23718;SDS011;43322;52.230;5.702;2023-05-09T09:09:11;15.63;;;12.40;;
23718;SDS011;43322;52.230;5.702;2023-05-09T09:11:41;14.05;;;12.65;;
23718;SDS011;43322;52.230;5.702;2023-05-09T09:14:10;13.90;;;12.35;;
23718;SDS011;43322;52.230;5.702;2023-05-09T09:16:38;16.58;;;12.50;;
23718;SDS011;43322;52.230;5.702;2023-05-09T09:19:08;13.13;;;11.80;;
23718;SDS011;43322;52.230;5.702;2023-05-09T09:21:38;13.48;;;11.93;;
23718;SDS011;43322;52.230;5.702;2023-05-09T09:24:06;14.07;;;12.52;;
23718;SDS011;43322;52.230;5.702;2023-05-09T09:26:33;14.85;;;12.20;;
23718;SDS011;43322;52.230;5.702;2023-05-09T09:29:10;14.43;;;12.48;;
23718;SDS011;43322;52.230;5.702;2023-05-09T09:31:37;16.20;;;13.07;;
23718;SDS011;43322;52.230;5.702;2023-05-09T09:34:04;13.38;;;11.77;;
23718;SDS011;43322;52.230;5.702;2023-05-09T09:36:31;13.73;;;12.35;;
23718;SDS011;43322;52.230;5.702;2023-05-09T09:38:59;17.02;;;13.25;;
23718;SDS011;43322;52.230;5.702;2023-05-09T09:41:31;15.02;;;12.50;;
23718;SDS011;43322;52.230;5.702;2023-05-09T09:43:58;14.77;;;13.20;;
23718;SDS011;43322;52.230;5.702;2023-05-09T09:46:40;16.42;;;13.20;;
23718;SDS011;43322;52.230;5.702;2023-05-09T09:49:08;14.65;;;13.15;;
23718;SDS011;43322;52.230;5.702;2023-05-09T09:51:35;14.52;;;13.00;;
23718;SDS011;43322;52.230;5.702;2023-05-09T09:54:03;13.80;;;12.32;;
23718;SDS011;43322;52.230;5.702;2023-05-09T09:56:39;13.45;;;12.02;;
23718;SDS011;43322;52.230;5.702;2023-05-09T09:59:08;15.27;;;11.88;;
23718;SDS011;43322;52.230;5.702;2023-05-09T10:01:41;12.27;;;10.73;;
23718;SDS011;43322;52.230;5.702;2023-05-09T10:04:23;10.80;;;9.77;;
23718;SDS011;43322;52.230;5.702;2023-05-09T10:06:50;9.82;;;9.02;;
23718;SDS011;43322;52.230;5.702;2023-05-09T10:09:19;10.30;;;7.90;;
23718;SDS011;43322;52.230;5.702;2023-05-09T10:11:46;8.95;;;8.23;;
23718;SDS011;43322;52.230;5.702;2023-05-09T10:14:15;9.00;;;8.20;;
23718;SDS011;43322;52.230;5.702;2023-05-09T10:16:45;8.60;;;7.90;;
23718;SDS011;43322;52.230;5.702;2023-05-09T10:19:13;8.05;;;7.18;;
23718;SDS011;43322;52.230;5.702;2023-05-09T10:21:43;7.22;;;6.63;;
23718;SDS011;43322;52.230;5.702;2023-05-09T10:24:14;7.75;;;6.95;;
23718;SDS011;43322;52.230;5.702;2023-05-09T10:26:43;7.72;;;7.05;;
23718;SDS011;43322;52.230;5.702;2023-05-09T10:29:13;7.40;;;6.90;;
23718;SDS011;43322;52.230;5.702;2023-05-09T10:31:48;6.90;;;6.40;;
23718;SDS011;43322;52.230;5.702;2023-05-09T10:34:21;6.70;;;6.07;;
23718;SDS011;43322;52.230;5.702;2023-05-09T10:36:50;5.82;;;5.43;;
23718;SDS011;43322;52.230;5.702;2023-05-09T10:39:17;6.72;;;6.22;;
23718;SDS011;43322;52.230;5.702;2023-05-09T10:41:44;6.55;;;5.78;;
23718;SDS011;43322;52.230;5.702;2023-05-09T10:44:13;5.85;;;5.45;;
23718;SDS011;43322;52.230;5.702;2023-05-09T10:46:40;7.07;;;6.63;;
23718;SDS011;43322;52.230;5.702;2023-05-09T10:49:09;7.03;;;6.45;;
23718;SDS011;43322;52.230;5.702;2023-05-09T10:51:36;7.75;;;7.05;;
23718;SDS011;43322;52.230;5.702;2023-05-09T10:54:05;7.18;;;6.70;;
23718;SDS011;43322;52.230;5.702;2023-05-09T10:56:39;7.60;;;7.10;;
23718;SDS011;43322;52.230;5.702;2023-05-09T10:59:06;8.15;;;7.55;;
23718;SDS011;43322;52.230;5.702;2023-05-09T11:02:01;7.85;;;7.13;;
23718;SDS011;43322;52.230;5.702;2023-05-09T11:04:30;8.73;;;7.95;;
23718;SDS011;43322;52.230;5.702;2023-05-09T11:06:57;8.88;;;8.15;;
23718;SDS011;43322;52.230;5.702;2023-05-09T11:09:25;9.25;;;8.38;;
23718;SDS011;43322;52.230;5.702;2023-05-09T11:11:58;9.00;;;8.35;;
23718;SDS011;43322;52.230;5.702;2023-05-09T11:14:32;9.13;;;8.43;;
23718;SDS011;43322;52.230;5.702;2023-05-09T11:17:05;8.82;;;8.02;;
23718;SDS011;43322;52.230;5.702;2023-05-09T11:19:34;8.52;;;7.72;;
23718;SDS011;43322;52.230;5.702;2023-05-09T11:22:09;7.95;;;7.35;;
23718;SDS011;43322;52.230;5.702;2023-05-09T11:24:37;7.82;;;7.32;;
23718;SDS011;43322;52.230;5.702;2023-05-09T11:27:12;10.02;;;7.75;;
23718;SDS011;43322;52.230;5.702;2023-05-09T11:29:44;11.82;;;7.57;;
23718;SDS011;43322;52.230;5.702;2023-05-09T11:32:14;10.95;;;7.05;;
23718;SDS011;43322;52.230;5.702;2023-05-09T11:34:43;33.53;;;8.77;;
23718;SDS011;43322;52.230;5.702;2023-05-09T11:37:11;21.75;;;7.43;;
23718;SDS011;43322;52.230;5.702;2023-05-09T11:39:54;17.48;;;7.03;;
23718;SDS011;43322;52.230;5.702;2023-05-09T11:42:22;63.65;;;10.95;;
23718;SDS011;43322;52.230;5.702;2023-05-09T11:44:50;15.70;;;6.45;;
23718;SDS011;43322;52.230;5.702;2023-05-09T11:47:18;18.45;;;6.68;;
23718;SDS011;43322;52.230;5.702;2023-05-09T11:49:46;49.67;;;7.97;;
23718;SDS011;43322;52.230;5.702;2023-05-09T11:52:13;16.50;;;6.80;;
23718;SDS011;43322;52.230;5.702;2023-05-09T11:54:40;48.70;;;9.43;;
23718;SDS011;43322;52.230;5.702;2023-05-09T11:57:07;15.85;;;5.65;;
23718;SDS011;43322;52.230;5.702;2023-05-09T11:59:34;12.90;;;5.80;;
23718;SDS011;43322;52.230;5.702;2023-05-09T12:02:03;21.35;;;6.22;;
23718;SDS011;43322;52.230;5.702;2023-05-09T12:04:30;11.88;;;5.45;;
23718;SDS011;43322;52.230;5.702;2023-05-09T12:06:59;37.30;;;6.80;;
23718;SDS011;43322;52.230;5.702;2023-05-09T12:09:28;70.85;;;8.77;;
23718;SDS011;43322;52.230;5.702;2023-05-09T12:11:56;27.10;;;6.47;;
23718;SDS011;43322;52.230;5.702;2023-05-09T12:14:26;9.57;;;4.80;;
23718;SDS011;43322;52.230;5.702;2023-05-09T12:16:54;10.52;;;5.35;;
23718;SDS011;43322;52.230;5.702;2023-05-09T12:19:21;14.40;;;5.50;;
23718;SDS011;43322;52.230;5.702;2023-05-09T12:21:52;4.80;;;4.50;;
23718;SDS011;43322;52.230;5.702;2023-05-09T12:24:21;10.65;;;5.30;;
23718;SDS011;43322;52.230;5.702;2023-05-09T12:26:50;5.88;;;5.38;;
23718;SDS011;43322;52.230;5.702;2023-05-09T12:29:17;5.82;;;5.43;;
23718;SDS011;43322;52.230;5.702;2023-05-09T12:31:44;7.80;;;6.55;;
23718;SDS011;43322;52.230;5.702;2023-05-09T12:34:11;6.45;;;5.78;;
23718;SDS011;43322;52.230;5.702;2023-05-09T12:36:38;6.63;;;6.03;;
23718;SDS011;43322;52.230;5.702;2023-05-09T12:39:08;7.40;;;6.68;;
23718;SDS011;43322;52.230;5.702;2023-05-09T12:41:42;7.97;;;6.75;;
23718;SDS011;43322;52.230;5.702;2023-05-09T12:44:16;10.32;;;6.63;;
23718;SDS011;43322;52.230;5.702;2023-05-09T12:46:51;8.00;;;7.32;;
23718;SDS011;43322;52.230;5.702;2023-05-09T12:49:19;7.07;;;6.47;;
23718;SDS011;43322;52.230;5.702;2023-05-09T12:51:47;7.85;;;7.03;;
23718;SDS011;43322;52.230;5.702;2023-05-09T12:54:18;6.88;;;6.30;;
23718;SDS011;43322;52.230;5.702;2023-05-09T12:56:46;6.70;;;6.28;;
23718;SDS011;43322;52.230;5.702;2023-05-09T12:59:18;7.80;;;6.13;;
23718;SDS011;43322;52.230;5.702;2023-05-09T13:01:50;6.47;;;6.07;;
23718;SDS011;43322;52.230;5.702;2023-05-09T13:04:18;6.20;;;5.60;;
23718;SDS011;43322;52.230;5.702;2023-05-09T13:06:49;6.57;;;6.18;;
23718;SDS011;43322;52.230;5.702;2023-05-09T13:09:18;6.95;;;6.47;;
23718;SDS011;43322;52.230;5.702;2023-05-09T13:11:45;6.88;;;6.35;;
23718;SDS011;43322;52.230;5.702;2023-05-09T13:14:13;6.60;;;6.18;;
23718;SDS011;43322;52.230;5.702;2023-05-09T13:16:40;7.03;;;6.32;;
23718;SDS011;43322;52.230;5.702;2023-05-09T13:19:08;6.78;;;6.38;;
23718;SDS011;43322;52.230;5.702;2023-05-09T13:21:35;6.38;;;5.95;;
23718;SDS011;43322;52.230;5.702;2023-05-09T13:24:02;6.18;;;5.78;;
23718;SDS011;43322;52.230;5.702;2023-05-09T13:26:29;6.05;;;5.65;;
23718;SDS011;43322;52.230;5.702;2023-05-09T13:28:57;6.22;;;5.45;;
23718;SDS011;43322;52.230;5.702;2023-05-09T13:31:24;6.03;;;5.32;;
23718;SDS011;43322;52.230;5.702;2023-05-09T13:33:50;5.00;;;4.60;;
23718;SDS011;43322;52.230;5.702;2023-05-09T13:36:17;6.57;;;4.45;;
23718;SDS011;43322;52.230;5.702;2023-05-09T13:38:44;5.50;;;3.97;;
23718;SDS011;43322;52.230;5.702;2023-05-09T13:41:11;4.85;;;4.22;;
23718;SDS011;43322;52.230;5.702;2023-05-09T13:43:43;4.57;;;4.28;;
23718;SDS011;43322;52.230;5.702;2023-05-09T13:46:11;4.35;;;4.05;;
23718;SDS011;43322;52.230;5.702;2023-05-09T13:48:38;4.82;;;4.43;;
23718;SDS011;43322;52.230;5.702;2023-05-09T13:51:05;4.97;;;4.60;;
23718;SDS011;43322;52.230;5.702;2023-05-09T13:53:32;5.53;;;5.07;;
23718;SDS011;43322;52.230;5.702;2023-05-09T13:55:59;4.82;;;4.60;;
23718;SDS011;43322;52.230;5.702;2023-05-09T13:58:26;4.82;;;4.38;;
23718;SDS011;43322;52.230;5.702;2023-05-09T14:00:53;5.45;;;5.15;;
23718;SDS011;43322;52.230;5.702;2023-05-09T14:03:21;6.00;;;4.60;;
23718;SDS011;43322;52.230;5.702;2023-05-09T14:05:47;5.28;;;4.97;;
23718;SDS011;43322;52.230;5.702;2023-05-09T14:08:14;5.57;;;5.28;;
23718;SDS011;43322;52.230;5.702;2023-05-09T14:10:41;5.13;;;4.82;;
23718;SDS011;43322;52.230;5.702;2023-05-09T14:13:08;5.28;;;4.78;;
23718;SDS011;43322;52.230;5.702;2023-05-09T14:15:36;5.40;;;5.00;;
23718;SDS011;43322;52.230;5.702;2023-05-09T14:18:03;5.53;;;5.00;;
23718;SDS011;43322;52.230;5.702;2023-05-09T14:20:31;4.88;;;4.63;;
23718;SDS011;43322;52.230;5.702;2023-05-09T14:22:58;5.43;;;5.07;;
23718;SDS011;43322;52.230;5.702;2023-05-09T14:25:25;5.53;;;5.10;;
23718;SDS011;43322;52.230;5.702;2023-05-09T14:27:52;5.47;;;5.15;;
23718;SDS011;43322;52.230;5.702;2023-05-09T14:30:19;6.20;;;5.18;;
23718;SDS011;43322;52.230;5.702;2023-05-09T14:32:45;5.47;;;5.07;;
23718;SDS011;43322;52.230;5.702;2023-05-09T14:35:12;6.07;;;5.68;;